createdAt,value
2018-05-14T00:00:53.708Z,55.50
2018-05-14T00:03:38.119Z,55.90
2018-05-14T00:06:08.251Z,55.80
2018-05-14T00:08:38.081Z,55.70
2018-05-14T00:11:08.474Z,55.60
2018-05-14T00:13:39.269Z,56.00
2018-05-14T00:16:09.506Z,55.90
2018-05-14T00:18:41.821Z,55.80
2018-05-14T00:21:12.281Z,55.80
2018-05-14T00:23:42.057Z,55.90
2018-05-14T00:26:18.263Z,55.90
2018-05-14T00:28:48.883Z,56.00
2018-05-14T00:31:18.554Z,55.90
2018-05-14T00:33:48.325Z,56.00
2018-05-14T00:36:18.007Z,55.70
2018-05-14T00:38:47.771Z,56.00
2018-05-14T00:41:17.547Z,56.10
2018-05-14T00:43:47.278Z,56.10
2018-05-14T00:46:16.992Z,55.80
2018-05-14T00:48:46.765Z,56.30
2018-05-14T00:51:16.642Z,56.30
2018-05-14T00:53:46.567Z,55.80
2018-05-14T00:56:16.964Z,56.00
2018-05-14T00:58:47.398Z,56.00
2018-05-14T01:01:17.483Z,56.20
2018-05-14T01:03:47.196Z,56.10
2018-05-14T01:06:17.706Z,56.00
2018-05-14T01:08:49.713Z,56.20
2018-05-14T01:11:19.547Z,56.20
2018-05-14T01:13:49.333Z,56.10
2018-05-14T01:16:19.812Z,56.00
2018-05-14T01:18:49.587Z,56.30
2018-05-14T01:21:19.362Z,56.20
2018-05-14T01:23:49.136Z,56.20
2018-05-14T01:26:18.909Z,56.30
2018-05-14T01:28:48.681Z,56.30
2018-05-14T01:31:18.660Z,56.40
2018-05-14T01:33:48.436Z,56.30
2018-05-14T01:36:19.027Z,56.20
2018-05-14T01:38:49.011Z,56.30
2018-05-14T01:41:18.780Z,56.40
2018-05-14T01:43:48.453Z,56.30
2018-05-14T01:46:18.293Z,56.30
2018-05-14T01:48:48.001Z,56.40
2018-05-14T01:51:17.674Z,56.30
2018-05-14T01:53:47.446Z,56.40
2018-05-14T01:56:17.223Z,56.70
2018-05-14T01:58:46.995Z,56.70
2018-05-14T02:01:16.784Z,56.40
2018-05-14T02:03:46.546Z,56.60
2018-05-14T02:06:16.421Z,56.60
2018-05-14T02:08:46.194Z,56.60
2018-05-14T02:11:16.071Z,56.80
2018-05-14T02:13:46.153Z,56.80
2018-05-14T02:16:15.927Z,56.70
2018-05-14T02:18:45.702Z,56.80
2018-05-14T02:21:15.475Z,57.00
2018-05-14T02:23:45.251Z,57.00
2018-05-14T02:26:15.431Z,56.90
2018-05-14T02:28:45.327Z,56.90
2018-05-14T02:31:15.187Z,56.90
2018-05-14T02:33:44.959Z,56.90
2018-05-14T02:36:14.733Z,56.90
2018-05-14T02:38:44.512Z,57.00
2018-05-14T02:41:14.282Z,56.90
2018-05-14T02:43:43.955Z,57.10
2018-05-14T02:46:13.933Z,57.10
2018-05-14T02:48:43.721Z,57.30
2018-05-14T02:51:13.584Z,57.10
2018-05-14T02:53:43.357Z,57.30
2018-05-14T02:56:13.131Z,57.30
2018-05-14T02:58:42.912Z,57.20
2018-05-14T03:01:12.577Z,57.20
2018-05-14T03:03:42.557Z,57.30
2018-05-14T03:06:12.231Z,57.30
2018-05-14T03:08:42.209Z,57.20
2018-05-14T03:11:11.880Z,57.20
2018-05-14T03:13:41.653Z,57.30
2018-05-14T03:16:11.487Z,57.40
2018-05-14T03:18:41.202Z,57.40
2018-05-14T03:21:11.020Z,57.50
2018-05-14T03:23:40.853Z,57.60
2018-05-14T03:26:10.626Z,57.70
2018-05-14T03:28:40.606Z,57.50
2018-05-14T03:31:10.340Z,57.50
2018-05-14T03:33:40.155Z,57.70
2018-05-14T03:36:09.930Z,57.80
2018-05-14T03:38:39.908Z,57.80
2018-05-14T03:41:09.680Z,57.80
2018-05-14T03:43:39.455Z,57.90
2018-05-14T03:46:09.332Z,57.90
2018-05-14T03:48:39.108Z,57.90
2018-05-14T03:51:08.880Z,58.00
2018-05-14T03:53:39.065Z,58.00
2018-05-14T03:56:09.044Z,58.00
2018-05-14T04:00:53.123Z,58.10
2018-05-14T04:04:35.575Z,58.20
2018-05-14T04:07:05.360Z,58.20
2018-05-14T04:09:35.539Z,58.40
2018-05-14T04:12:05.364Z,58.50
2018-05-14T04:14:35.140Z,58.60
2018-05-14T04:17:04.912Z,58.40
2018-05-14T04:19:34.693Z,58.50
2018-05-14T04:22:04.564Z,58.50
2018-05-14T04:24:35.113Z,58.60
2018-05-14T04:27:05.081Z,58.60
2018-05-14T04:29:35.116Z,58.70
2018-05-14T04:32:04.891Z,58.70
2018-05-14T04:34:34.767Z,58.80
2018-05-14T04:37:04.544Z,58.80
2018-05-14T04:39:34.443Z,59.10
2018-05-14T04:42:04.396Z,58.90
2018-05-14T04:44:34.171Z,59.20
2018-05-14T04:47:03.887Z,59.10
2018-05-14T04:49:33.719Z,59.10
2018-05-14T04:52:03.494Z,59.30
2018-05-14T04:54:33.473Z,59.20
2018-05-14T04:57:03.452Z,59.40
2018-05-14T04:59:33.381Z,59.40
2018-05-14T05:02:03.927Z,59.50
2018-05-14T05:04:34.319Z,59.50
2018-05-14T05:07:04.996Z,59.60
2018-05-14T05:09:35.499Z,59.70
2018-05-14T05:12:05.274Z,59.70
2018-05-14T05:14:35.254Z,60.50
2018-05-14T05:17:05.377Z,59.90
2018-05-14T05:19:35.112Z,60.00
2018-05-14T05:22:05.131Z,60.10
2018-05-14T05:24:48.380Z,60.10
2018-05-14T05:27:19.217Z,60.10
2018-05-14T05:29:48.953Z,60.20
2018-05-14T05:32:18.941Z,60.40
2018-05-14T05:34:48.856Z,60.30
2018-05-14T05:37:30.489Z,60.60
2018-05-14T05:40:00.653Z,60.70
2018-05-14T05:42:30.428Z,60.90
2018-05-14T05:45:00.205Z,61.00
2018-05-14T05:47:30.751Z,60.90
2018-05-14T05:50:02.105Z,61.10
2018-05-14T05:52:32.591Z,61.20
2018-05-14T05:55:02.268Z,61.30
2018-05-14T05:57:32.043Z,61.50
2018-05-14T06:00:01.817Z,61.60
2018-05-14T06:02:31.590Z,61.60
2018-05-14T06:05:01.565Z,61.70
2018-05-14T06:07:31.636Z,61.70
2018-05-14T06:10:02.245Z,62.00
2018-05-14T06:12:32.020Z,62.00
2018-05-14T06:15:01.999Z,62.00
2018-05-14T06:17:31.773Z,62.10
2018-05-14T06:20:01.855Z,62.10
2018-05-14T06:22:31.675Z,62.10
2018-05-14T06:25:01.504Z,62.20
2018-05-14T06:27:31.381Z,62.70
2018-05-14T06:30:01.362Z,62.50
2018-05-14T06:32:31.647Z,62.70
2018-05-14T06:35:01.421Z,62.80
2018-05-14T06:37:31.094Z,63.70
2018-05-14T06:40:01.083Z,62.90
2018-05-14T06:42:30.750Z,63.10
2018-05-14T06:45:00.740Z,63.30
2018-05-14T06:47:30.603Z,63.30
2018-05-14T06:50:00.428Z,63.50
2018-05-14T06:52:30.149Z,63.40
2018-05-14T06:54:59.924Z,63.60
2018-05-14T06:57:29.803Z,63.60
2018-05-14T06:59:59.580Z,63.90
2018-05-14T07:02:29.657Z,63.70
2018-05-14T07:04:59.481Z,63.70
2018-05-14T07:07:40.054Z,63.70
2018-05-14T07:10:23.095Z,63.90
2018-05-14T07:12:54.873Z,64.50
2018-05-14T07:15:24.953Z,64.10
2018-05-14T07:17:54.728Z,64.00
2018-05-14T07:20:24.527Z,64.10
2018-05-14T07:22:54.432Z,64.00
2018-05-14T07:25:24.597Z,64.20
2018-05-14T07:27:54.385Z,64.40
2018-05-14T07:30:24.109Z,64.40
2018-05-14T07:32:53.888Z,64.70
2018-05-14T07:35:24.887Z,64.50
2018-05-14T07:38:01.850Z,65.30
2018-05-14T07:40:32.361Z,64.70
2018-05-14T07:43:02.200Z,64.80
2018-05-14T07:45:32.116Z,64.50
2018-05-14T07:48:02.156Z,64.70
2018-05-14T07:50:32.035Z,64.90
2018-05-14T07:53:02.425Z,65.10
2018-05-14T07:55:32.504Z,65.20
2018-05-14T07:58:02.582Z,65.20
2018-05-14T08:00:32.593Z,65.10
2018-05-14T08:03:03.120Z,65.10
2018-05-14T08:05:33.829Z,65.20
2018-05-14T08:08:03.721Z,65.30
2018-05-14T08:10:33.496Z,65.20
2018-05-14T08:13:03.377Z,65.30
2018-05-14T08:15:33.355Z,65.30
2018-05-14T08:18:03.331Z,65.40
2018-05-14T08:20:33.106Z,65.40
2018-05-14T08:23:02.880Z,65.40
2018-05-14T08:25:32.660Z,65.50
2018-05-14T08:28:02.650Z,65.40
2018-05-14T08:30:32.716Z,65.50
2018-05-14T08:33:02.798Z,65.50
2018-05-14T08:35:32.737Z,65.60
2018-05-14T08:38:02.756Z,65.50
2018-05-14T08:40:32.632Z,65.70
2018-05-14T08:43:02.469Z,65.60
2018-05-14T08:45:32.282Z,65.70
2018-05-14T08:48:02.337Z,65.70
2018-05-14T08:50:32.241Z,66.50
2018-05-14T08:53:02.082Z,66.30
2018-05-14T08:55:32.928Z,65.90
2018-05-14T08:58:02.792Z,65.80
2018-05-14T09:00:32.670Z,66.00
2018-05-14T09:03:02.545Z,66.00
2018-05-14T09:05:33.036Z,65.90
2018-05-14T09:08:02.816Z,66.20
2018-05-14T09:10:32.689Z,66.30
2018-05-14T09:13:02.564Z,66.20
2018-05-14T09:15:32.647Z,66.10
2018-05-14T09:18:02.524Z,66.40
2018-05-14T09:20:32.502Z,66.20
2018-05-14T09:23:02.276Z,66.20
2018-05-14T09:25:32.363Z,66.30
2018-05-14T09:28:02.131Z,66.30
2018-05-14T09:30:32.010Z,66.60
2018-05-14T09:33:01.997Z,66.30
2018-05-14T09:35:31.711Z,66.60
2018-05-14T09:38:01.539Z,66.60
2018-05-14T09:40:32.232Z,66.60
2018-05-14T09:43:02.519Z,66.70
2018-05-14T09:45:33.725Z,66.80
2018-05-14T09:48:03.605Z,67.00
2018-05-14T09:50:33.480Z,67.00
2018-05-14T09:53:12.272Z,66.60
2018-05-14T09:55:42.916Z,66.70
2018-05-14T09:58:12.943Z,66.80
2018-05-14T10:00:42.922Z,67.00
2018-05-14T10:03:12.861Z,66.90
2018-05-14T10:05:42.579Z,67.00
2018-05-14T10:08:12.657Z,67.10
2018-05-14T10:10:42.326Z,66.90
2018-05-14T10:13:12.101Z,66.90
2018-05-14T10:15:41.878Z,66.70
2018-05-14T10:18:11.828Z,66.70
2018-05-14T10:20:41.755Z,66.90
2018-05-14T10:23:12.540Z,67.00
2018-05-14T10:25:42.405Z,66.60
2018-05-14T10:28:12.231Z,67.50
2018-05-14T10:30:42.894Z,66.60
2018-05-14T10:33:12.651Z,66.60
2018-05-14T10:35:42.481Z,66.70
2018-05-14T10:38:12.506Z,66.60
2018-05-14T10:40:42.499Z,66.60
2018-05-14T10:43:12.410Z,66.20
2018-05-14T10:45:42.255Z,66.40
2018-05-14T10:48:12.272Z,66.40
2018-05-14T10:50:41.992Z,66.20
2018-05-14T10:53:11.969Z,66.20
2018-05-14T10:55:41.896Z,66.20
2018-05-14T10:58:13.934Z,66.30
2018-05-14T11:00:43.754Z,66.10
2018-05-14T11:03:13.777Z,65.60
2018-05-14T11:05:43.607Z,65.70
2018-05-14T11:08:13.693Z,65.60
2018-05-14T11:10:43.684Z,65.60
2018-05-14T11:13:13.442Z,65.30
2018-05-14T11:15:43.525Z,64.50
2018-05-14T11:18:13.605Z,64.70
2018-05-14T11:20:43.482Z,64.60
2018-05-14T11:23:13.336Z,64.60
2018-05-14T11:25:43.134Z,64.70
2018-05-14T11:28:13.218Z,64.50
2018-05-14T11:30:42.990Z,64.60
2018-05-14T11:33:12.761Z,64.50
2018-05-14T11:35:42.640Z,64.40
2018-05-14T11:38:12.415Z,64.00
2018-05-14T11:40:42.599Z,64.00
2018-05-14T11:43:13.309Z,64.20
2018-05-14T11:45:43.377Z,64.20
2018-05-14T11:48:13.356Z,64.10
2018-05-14T11:50:43.637Z,64.10
2018-05-14T11:53:13.521Z,64.10
2018-05-14T11:55:43.297Z,64.00
2018-05-14T11:58:13.888Z,63.50
2018-05-14T12:00:43.867Z,63.40
2018-05-14T12:03:14.346Z,63.20
2018-05-14T12:05:44.235Z,63.40
2018-05-14T12:08:14.376Z,63.50
2018-05-14T12:10:44.296Z,63.30
2018-05-14T12:13:14.170Z,63.40
2018-05-14T12:15:43.947Z,63.50
2018-05-14T12:18:14.197Z,63.40
2018-05-14T12:20:44.531Z,63.50
2018-05-14T12:23:14.295Z,63.50
2018-05-14T12:25:44.366Z,63.40
2018-05-14T12:28:14.254Z,63.30
2018-05-14T12:30:44.434Z,63.20
2018-05-14T12:33:14.228Z,63.20
2018-05-14T12:35:44.085Z,63.40
2018-05-14T12:38:14.172Z,63.20
2018-05-14T12:40:44.262Z,62.90
2018-05-14T12:43:14.843Z,63.20
2018-05-14T12:45:44.926Z,63.30
2018-05-14T12:48:14.906Z,63.10
2018-05-14T12:50:45.808Z,63.20
2018-05-14T12:53:15.872Z,63.00
2018-05-14T12:55:46.570Z,63.10
2018-05-14T12:58:16.460Z,63.10
2018-05-14T13:00:46.235Z,63.00
2018-05-14T13:03:16.122Z,63.10
2018-05-14T13:05:46.194Z,63.00
2018-05-14T13:08:17.624Z,63.00
2018-05-14T13:10:49.884Z,63.00
2018-05-14T13:13:21.124Z,62.90
2018-05-14T13:15:52.648Z,62.90
2018-05-14T13:18:24.419Z,62.90
2018-05-14T13:20:55.676Z,62.80
2018-05-14T13:23:26.914Z,62.80
2018-05-14T13:25:58.898Z,63.20
2018-05-14T13:28:30.999Z,62.70
2018-05-14T13:31:02.578Z,62.70
2018-05-14T13:33:34.047Z,62.70
2018-05-14T13:36:05.555Z,62.70
2018-05-14T13:38:37.150Z,62.60
2018-05-14T13:41:09.563Z,62.50
2018-05-14T13:43:41.491Z,62.70
2018-05-14T13:46:12.876Z,62.70
2018-05-14T13:48:44.233Z,62.70
2018-05-14T13:51:15.579Z,62.70
2018-05-14T13:53:47.068Z,62.80
2018-05-14T13:56:19.185Z,62.70
2018-05-14T13:58:50.955Z,62.40
2018-05-14T14:01:22.411Z,62.40
2018-05-14T14:03:54.046Z,62.50
2018-05-14T14:06:25.621Z,62.60
2018-05-14T14:08:57.181Z,62.60
2018-05-14T14:11:28.814Z,62.60
2018-05-14T14:14:00.249Z,62.60
2018-05-14T14:16:31.880Z,62.40
2018-05-14T14:19:04.437Z,62.50
2018-05-14T14:21:34.956Z,62.50
2018-05-14T14:24:04.818Z,62.70
2018-05-14T14:58:36.875Z,62.30
2018-05-14T15:01:06.749Z,62.30
2018-05-14T15:03:37.343Z,62.50
2018-05-14T15:06:07.220Z,62.60
2018-05-14T15:08:37.044Z,62.20
2018-05-14T15:11:07.075Z,62.20
2018-05-14T15:13:36.886Z,62.30
2018-05-14T15:16:06.829Z,62.10
2018-05-14T15:18:37.115Z,62.00
2018-05-14T15:21:07.055Z,62.00
2018-05-14T15:23:37.032Z,62.40
2018-05-14T15:26:07.061Z,61.50
2018-05-14T15:28:36.931Z,60.40
2018-05-14T15:31:06.883Z,58.70
2018-05-14T15:33:36.588Z,58.20
2018-05-14T15:36:06.355Z,57.90
2018-05-14T15:38:36.232Z,56.70
2018-05-14T15:41:06.684Z,57.00
2018-05-14T15:43:36.869Z,57.40
2018-05-14T15:46:08.366Z,59.10
2018-05-14T15:48:38.201Z,59.00
2018-05-14T15:51:09.936Z,59.60
2018-05-14T15:53:40.099Z,59.60
2018-05-14T15:56:10.215Z,60.10
2018-05-14T15:58:40.160Z,60.10
2018-05-14T16:01:10.038Z,60.40
2018-05-14T16:03:39.815Z,60.60
2018-05-14T16:06:09.789Z,60.50
2018-05-14T16:08:39.509Z,61.00
2018-05-14T16:11:10.057Z,60.90
2018-05-14T16:13:40.029Z,60.40
2018-05-14T16:16:10.427Z,60.40
2018-05-14T16:18:40.398Z,61.10
2018-05-14T16:21:10.167Z,61.30
2018-05-14T16:23:39.937Z,61.30
2018-05-14T16:26:09.815Z,61.50
2018-05-14T16:28:39.688Z,60.50
2018-05-14T16:31:09.458Z,60.40
2018-05-14T16:33:39.252Z,60.60
2018-05-14T16:36:09.315Z,60.40
2018-05-14T16:38:39.289Z,60.20
2018-05-14T16:41:09.574Z,60.00
2018-05-14T16:43:39.715Z,60.10
2018-05-14T16:46:10.706Z,60.10
2018-05-14T16:48:40.436Z,60.10
2018-05-14T16:51:10.667Z,59.70
2018-05-14T16:53:40.991Z,60.00
2018-05-14T16:56:10.858Z,60.60
2018-05-14T16:58:40.756Z,59.70
2018-05-14T17:01:10.721Z,59.80
2018-05-14T17:03:40.407Z,59.80
2018-05-14T17:06:10.179Z,59.40
2018-05-14T17:08:40.180Z,59.50
2018-05-14T17:11:09.972Z,59.70
2018-05-14T17:13:39.706Z,59.70
2018-05-14T17:16:09.786Z,59.90
2018-05-14T17:18:39.563Z,60.00
2018-05-14T17:21:09.538Z,60.10
2018-05-14T17:23:39.311Z,59.90
2018-05-14T17:26:09.296Z,60.30
2018-05-14T17:28:39.370Z,60.30
2018-05-14T17:31:09.325Z,60.30
2018-05-14T17:33:39.123Z,60.70
2018-05-14T17:36:09.206Z,60.20
2018-05-14T17:38:39.137Z,60.30
2018-05-14T17:41:09.166Z,61.00
2018-05-14T17:43:39.040Z,60.90
2018-05-14T17:46:09.119Z,61.00
2018-05-14T17:48:44.056Z,60.90
2018-05-14T17:51:13.787Z,60.70
2018-05-14T17:53:43.560Z,60.80
2018-05-14T17:56:13.436Z,61.10
2018-05-14T17:58:43.360Z,60.80
2018-05-14T18:01:13.189Z,61.00
2018-05-14T18:03:43.268Z,61.30
2018-05-14T18:06:13.409Z,60.90
2018-05-14T18:08:43.319Z,60.80
2018-05-14T18:11:14.125Z,60.90
2018-05-14T18:13:44.513Z,60.90
2018-05-14T18:16:14.471Z,60.50
2018-05-14T18:18:44.783Z,60.70
2018-05-14T18:21:15.775Z,60.70
2018-05-14T18:23:47.293Z,60.30
2018-05-14T18:26:17.665Z,60.30
2018-05-14T18:28:49.481Z,60.30
2018-05-14T18:31:24.818Z,60.20
2018-05-14T18:33:55.143Z,60.20
2018-05-14T18:36:25.267Z,60.10
2018-05-14T18:38:56.032Z,60.00
2018-05-14T18:41:26.858Z,59.90
2018-05-14T18:43:56.687Z,59.80
2018-05-14T18:46:26.580Z,59.60
2018-05-14T18:48:56.667Z,59.80
2018-05-14T18:51:26.484Z,59.70
2018-05-14T18:53:56.692Z,59.70
2018-05-14T18:56:26.571Z,59.50
2018-05-14T18:58:57.319Z,59.40
2018-05-14T19:01:27.298Z,59.50
2018-05-14T19:03:57.276Z,59.40
2018-05-14T19:06:27.641Z,59.50
2018-05-14T19:08:57.425Z,59.30
2018-05-14T19:11:58.151Z,59.20
2018-05-14T19:14:28.286Z,59.30
2018-05-14T19:18:06.838Z,59.50
2018-05-14T19:20:36.698Z,59.20
2018-05-14T19:24:14.302Z,59.00
2018-05-14T19:26:44.382Z,58.90
2018-05-14T19:29:19.698Z,58.90
2018-05-14T19:31:50.273Z,58.80
2018-05-14T19:34:24.561Z,58.80
2018-05-14T19:36:55.217Z,58.90
2018-05-14T19:39:29.325Z,58.70
2018-05-14T19:41:59.465Z,58.80
2018-05-14T19:44:29.997Z,58.70
2018-05-14T19:47:00.397Z,58.70
2018-05-14T19:49:31.011Z,59.30
2018-05-14T19:52:00.936Z,58.60
2018-05-14T19:54:30.988Z,58.40
2018-05-14T19:57:01.017Z,58.50
2018-05-14T19:59:30.880Z,58.50
2018-05-14T20:02:01.888Z,58.30
2018-05-14T20:04:33.094Z,58.30
2018-05-14T20:07:02.867Z,58.20
2018-05-14T20:09:32.648Z,58.10
2018-05-14T20:12:02.920Z,58.00
2018-05-14T20:14:33.007Z,54.70
2018-05-14T20:17:03.145Z,57.10
2018-05-14T20:19:33.736Z,56.60
2018-05-14T20:22:03.751Z,57.20
2018-05-14T20:24:33.523Z,57.50
2018-05-14T20:27:03.515Z,59.20
2018-05-14T20:29:33.478Z,58.30
2018-05-14T20:32:03.358Z,57.90
2018-05-14T20:34:33.332Z,57.80
2018-05-14T20:37:03.576Z,57.80
2018-05-14T20:39:33.695Z,57.70
2018-05-14T20:42:03.783Z,57.60
2018-05-14T20:44:34.023Z,57.80
2018-05-14T20:47:04.107Z,57.70
2018-05-14T20:49:34.235Z,57.70
2018-05-14T20:52:04.113Z,57.60
2018-05-14T20:54:34.997Z,57.60
2018-05-14T20:57:05.137Z,57.50
2018-05-14T20:59:35.063Z,57.70
2018-05-14T21:02:06.964Z,57.30
2018-05-14T21:04:36.955Z,57.50
2018-05-14T21:07:07.342Z,57.50
2018-05-14T21:09:39.980Z,57.50
2018-05-14T21:12:10.247Z,57.40
2018-05-14T21:14:40.011Z,57.40
2018-05-14T21:17:10.378Z,57.40
2018-05-14T21:19:41.329Z,57.30
2018-05-14T21:22:11.204Z,57.30
2018-05-14T21:24:41.366Z,57.40
2018-05-14T21:27:11.470Z,57.10
2018-05-14T21:29:41.552Z,57.30
2018-05-14T21:32:12.403Z,57.30
2018-05-14T21:34:43.045Z,57.30
2018-05-14T21:37:13.058Z,57.50
2018-05-14T21:39:43.891Z,57.30
2018-05-14T21:42:15.745Z,57.20
2018-05-14T21:44:45.607Z,57.20
2018-05-14T21:47:15.640Z,57.20
2018-05-14T21:49:46.243Z,57.20
2018-05-14T21:52:16.581Z,57.30
2018-05-14T21:54:46.644Z,57.90
2018-05-14T21:57:16.725Z,57.20
2018-05-14T21:59:46.602Z,57.30
2018-05-14T22:02:16.683Z,57.10
2018-05-14T22:04:46.871Z,57.30
2018-05-14T22:07:17.158Z,57.10
2018-05-14T22:09:47.139Z,57.10
2018-05-14T22:12:17.256Z,57.10
2018-05-14T22:14:47.614Z,57.30
2018-05-14T22:17:17.687Z,57.20
2018-05-14T22:19:47.859Z,57.30
2018-05-14T22:22:19.050Z,57.30
2018-05-14T22:24:49.034Z,57.30
2018-05-14T22:27:18.935Z,57.30
2018-05-14T22:29:48.865Z,57.20
2018-05-14T22:32:18.690Z,57.30
2018-05-14T22:34:50.417Z,57.40
2018-05-14T22:37:21.218Z,57.30
2018-05-14T22:39:51.394Z,57.50
2018-05-14T22:42:21.284Z,57.30
2018-05-14T22:44:51.046Z,57.40
2018-05-14T22:47:20.900Z,57.40
2018-05-14T22:49:50.801Z,57.40
2018-05-14T22:52:21.086Z,57.30
2018-05-14T22:54:52.297Z,57.60
2018-05-14T22:57:22.173Z,57.50
2018-05-14T22:59:51.947Z,57.70
2018-05-14T23:02:22.642Z,57.80
2018-05-14T23:04:52.420Z,57.70
2018-05-14T23:07:22.202Z,57.80
2018-05-14T23:09:52.378Z,57.90
2018-05-14T23:12:22.149Z,57.90
2018-05-14T23:14:52.539Z,57.90
2018-05-14T23:17:22.519Z,57.90
2018-05-14T23:19:52.589Z,57.90
2018-05-14T23:22:27.813Z,58.00
2018-05-14T23:24:57.579Z,58.00
2018-05-14T23:27:27.596Z,58.00
2018-05-14T23:29:58.051Z,58.00
2018-05-14T23:32:28.040Z,58.20
2018-05-14T23:34:58.025Z,58.10
2018-05-14T23:37:27.808Z,58.10
2018-05-14T23:39:57.571Z,58.20
2018-05-14T23:42:27.445Z,58.20
2018-05-14T23:44:57.733Z,58.20
2018-05-14T23:47:27.511Z,58.30
2018-05-14T23:49:57.503Z,58.30
2018-05-14T23:52:27.371Z,58.80
2018-05-14T23:54:57.149Z,58.30
2018-05-14T23:57:27.948Z,58.30
2018-05-14T23:59:58.858Z,58.30
